Time;durP1;ratioP1;P1;durP2;ratioP2;P2;SDS_P1;SDS_P2;PMS_P1;PMS_P2;Temp;Humidity;BMP_temperature;BMP_pressure;BME280_temperature;BME280_humidity;BME280_pressure;Samples;Min_cycle;Max_cycle;Signal;HPM_P1;HPM_P2
2022/01/28 00:01:06;;;;;;;6.43;3.97;;;5.50;99.90;;;;;;5064954;28;20567;-70
2022/01/28 00:03:35;;;;;;;6.87;4.27;;;5.60;99.90;;;;;;5055542;28;20217;-70
2022/01/28 00:06:04;;;;;;;6.67;3.40;;;5.70;99.90;;;;;;5060151;28;20199;-70
2022/01/28 00:08:33;;;;;;;6.57;3.67;;;5.70;99.90;;;;;;5064889;28;20198;-70
2022/01/28 00:10:59;;;;;;;5.87;3.43;;;5.70;99.90;;;;;;5060697;28;20199;-70
2022/01/28 00:13:39;;;;;;;5.70;3.23;;;5.80;99.90;;;;;;5063996;28;20195;-70
2022/01/28 00:36:30;;;;;;;4.37;3.10;;;5.80;99.90;;;;;;5061658;28;20492;-70
2022/01/28 00:40:26;;;;;;;9.60;3.00;;;5.60;99.90;;;;;;5060873;28;20616;-70
2022/01/28 00:42:53;;;;;;;7.00;3.17;;;5.60;99.90;;;;;;5064730;28;20348;-70
2022/01/28 00:45:21;;;;;;;4.83;3.40;;;5.60;99.90;;;;;;5062655;28;20224;-70
2022/01/28 00:47:48;;;;;;;5.03;3.63;;;5.60;99.90;;;;;;5063430;28;20241;-70
2022/01/28 00:50:15;;;;;;;7.07;3.10;;;5.70;99.90;;;;;;5065916;28;20198;-70
2022/01/28 00:52:42;;;;;;;6.47;3.30;;;5.70;99.90;;;;;;5066780;28;20577;-70
2022/01/28 00:55:09;;;;;;;4.73;3.07;;;5.60;99.90;;;;;;5062318;28;20217;-70
2022/01/28 00:57:36;;;;;;;5.17;3.00;;;5.60;99.90;;;;;;5063943;28;20198;-70
2022/01/28 01:00:08;;;;;;;5.77;3.10;;;5.60;99.90;;;;;;5064894;28;20219;-70
2022/01/28 01:02:35;;;;;;;5.23;3.00;;;5.60;99.90;;;;;;5061397;28;20724;-70
2022/01/28 01:05:02;;;;;;;4.73;2.50;;;5.70;99.90;;;;;;5063831;28;20222;-70
2022/01/28 01:07:30;;;;;;;7.17;2.33;;;5.70;99.90;;;;;;5063998;28;20190;-70
2022/01/28 01:09:57;;;;;;;4.93;2.03;;;5.80;99.90;;;;;;5063864;28;20190;-70
2022/01/28 01:12:26;;;;;;;6.23;2.10;;;5.90;99.90;;;;;;5078527;28;20269;-69
2022/01/28 01:14:53;;;;;;;4.70;2.30;;;5.90;99.90;;;;;;5063014;28;20217;-70
2022/01/28 01:19:53;;;;;;;5.70;1.90;;;5.90;99.90;;;;;;5056403;28;20667;-70
2022/01/28 01:22:20;;;;;;;3.83;1.80;;;5.90;99.90;;;;;;5077582;28;20222;-70
2022/01/28 01:24:50;;;;;;;5.80;2.00;;;5.80;99.90;;;;;;5063253;28;20221;-70
2022/01/28 01:27:18;;;;;;;2.07;1.60;;;5.70;99.90;;;;;;5067637;28;20205;-70
2022/01/28 01:29:46;;;;;;;2.97;1.50;;;5.70;99.90;;;;;;5060576;28;20646;-70
2022/01/28 01:32:16;;;;;;;5.67;1.50;;;5.70;99.90;;;;;;5067353;28;20194;-70
2022/01/28 01:34:42;;;;;;;4.00;1.97;;;5.80;99.90;;;;;;5076244;28;20613;-70
2022/01/28 01:37:12;;;;;;;3.70;1.60;;;5.80;99.90;;;;;;5062690;28;20190;-70
2022/01/28 01:39:41;;;;;;;7.03;1.70;;;5.80;99.90;;;;;;5059476;28;20191;-70
2022/01/28 01:42:22;;;;;;;4.93;1.43;;;5.90;99.90;;;;;;5066419;28;20202;-70
2022/01/28 01:52:56;;;;;;;6.37;1.67;;;6.30;99.90;;;;;;5055670;28;20247;-70
2022/01/28 01:55:24;;;;;;;4.73;2.30;;;6.20;99.90;;;;;;5063516;28;20221;-70
2022/01/28 01:57:51;;;;;;;3.27;1.63;;;6.20;99.90;;;;;;5073539;28;20194;-70
2022/01/28 02:00:18;;;;;;;4.93;2.20;;;6.10;99.90;;;;;;5062316;28;20210;-70
2022/01/28 02:02:44;;;;;;;6.20;2.17;;;6.00;99.90;;;;;;5059417;28;20222;-70
2022/01/28 02:05:11;;;;;;;3.83;2.13;;;5.70;99.90;;;;;;5062748;28;20286;-70
2022/01/28 02:07:42;;;;;;;3.67;1.90;;;5.60;99.90;;;;;;5068876;28;20206;-70
2022/01/28 02:10:09;;;;;;;6.23;2.13;;;5.50;99.90;;;;;;5065283;28;20665;-70
2022/01/28 02:12:56;;;;;;;3.07;1.90;;;5.30;99.90;;;;;;5065800;28;20809;-70
2022/01/28 02:15:23;;;;;;;3.40;1.90;;;5.20;99.90;;;;;;5059978;28;20214;-70
2022/01/28 02:17:49;;;;;;;4.00;1.87;;;5.20;99.90;;;;;;5069951;28;20268;-70
2022/01/28 02:20:35;;;;;;;6.13;1.73;;;5.20;99.90;;;;;;5061362;28;20202;-70
2022/01/28 02:23:03;;;;;;;4.37;1.80;;;5.30;99.90;;;;;;5068561;28;20222;-70
2022/01/28 02:25:32;;;;;;;6.87;2.00;;;5.30;99.90;;;;;;5065737;28;20210;-70
2022/01/28 02:28:01;;;;;;;4.43;2.00;;;5.20;99.90;;;;;;5071782;28;20217;-70
2022/01/28 02:30:28;;;;;;;4.07;2.03;;;5.10;99.90;;;;;;5065806;28;20200;-70
2022/01/28 02:33:01;;;;;;;5.43;2.07;;;5.10;99.90;;;;;;5068256;28;20677;-70
2022/01/28 02:35:28;;;;;;;4.70;1.73;;;5.10;99.90;;;;;;5069281;28;20686;-70
2022/01/28 02:37:55;;;;;;;5.40;1.83;;;5.20;99.90;;;;;;5063739;28;20628;-70
2022/01/28 02:40:22;;;;;;;6.40;2.23;;;5.30;99.90;;;;;;5067094;28;20205;-70
2022/01/28 02:42:58;;;;;;;5.87;2.33;;;5.40;99.90;;;;;;5067700;28;20297;-70
2022/01/28 02:45:29;;;;;;;8.13;1.63;;;5.50;99.90;;;;;;5063691;28;20224;-70
2022/01/28 02:48:01;;;;;;;4.83;2.13;;;5.70;99.90;;;;;;5071228;28;20208;-70
2022/01/28 02:50:31;;;;;;;3.73;1.80;;;5.80;99.90;;;;;;5058327;28;20200;-70
2022/01/28 02:53:09;;;;;;;7.83;1.90;;;5.90;99.90;;;;;;5056050;28;20302;-70
2022/01/28 02:55:40;;;;;;;6.80;1.60;;;5.90;99.90;;;;;;5068998;28;20233;-70
2022/01/28 02:58:24;;;;;;;4.07;1.30;;;5.90;99.90;;;;;;5065505;28;20196;-70
2022/01/28 03:00:56;;;;;;;7.63;1.77;;;5.90;99.90;;;;;;5064253;28;20204;-70
2022/01/28 03:03:23;;;;;;;4.03;1.70;;;5.80;99.90;;;;;;5065788;28;20269;-70
2022/01/28 03:05:51;;;;;;;3.43;1.80;;;5.70;99.90;;;;;;5065372;28;20653;-70
2022/01/28 03:08:22;;;;;;;7.07;1.73;;;5.60;99.90;;;;;;5060064;28;20202;-70
2022/01/28 03:13:29;;;;;;;10.40;2.00;;;5.40;99.90;;;;;;5067607;28;20209;-70
2022/01/28 03:16:07;;;;;;;6.10;1.50;;;5.40;99.90;;;;;;5067799;28;20197;-70
2022/01/28 03:18:51;;;;;;;8.03;1.60;;;5.40;99.90;;;;;;5067955;28;20682;-70
2022/01/28 03:21:41;;;;;;;5.00;1.43;;;5.60;99.90;;;;;;5075174;28;20203;-70
2022/01/28 03:24:10;;;;;;;8.47;1.97;;;5.70;99.90;;;;;;5060944;28;20220;-70
2022/01/28 03:26:36;;;;;;;4.60;1.53;;;5.70;99.90;;;;;;5066367;28;20206;-70
2022/01/28 03:29:04;;;;;;;6.07;1.43;;;5.70;99.90;;;;;;5068639;28;20644;-70
2022/01/28 03:31:31;;;;;;;11.60;2.00;;;5.80;99.90;;;;;;5064846;28;20209;-70
2022/01/28 03:33:58;;;;;;;5.17;1.57;;;5.90;99.90;;;;;;5066577;28;20220;-70
2022/01/28 03:36:24;;;;;;;3.03;1.40;;;5.90;99.90;;;;;;5065012;28;20210;-70
2022/01/28 03:38:51;;;;;;;10.20;1.80;;;5.90;99.90;;;;;;5058091;28;20201;-70
2022/01/28 03:41:18;;;;;;;6.73;1.67;;;5.70;99.90;;;;;;5067088;28;20202;-70
2022/01/28 03:43:48;;;;;;;5.50;1.73;;;5.60;99.90;;;;;;5064124;28;20275;-70
2022/01/28 03:46:16;;;;;;;5.23;1.40;;;5.40;99.90;;;;;;5067697;28;20240;-70
2022/01/28 03:48:43;;;;;;;8.10;2.00;;;5.40;99.90;;;;;;5068200;28;20646;-70
2022/01/28 03:51:09;;;;;;;5.87;1.50;;;5.40;99.90;;;;;;5064165;28;20191;-70
2022/01/28 03:53:36;;;;;;;4.83;1.77;;;5.50;99.90;;;;;;5060474;28;20222;-70
2022/01/28 03:56:03;;;;;;;4.83;1.70;;;5.40;99.90;;;;;;5064709;28;20199;-70
2022/01/28 03:58:30;;;;;;;4.17;1.67;;;5.60;99.90;;;;;;5067125;28;20481;-70
2022/01/28 04:00:58;;;;;;;4.97;1.50;;;5.60;99.90;;;;;;5066473;28;20251;-70
2022/01/28 04:03:41;;;;;;;5.30;1.33;;;5.50;99.90;;;;;;5066920;28;20221;-70
2022/01/28 04:11:38;;;;;;;3.77;1.53;;;5.60;99.90;;;;;;5062809;28;20196;-70
2022/01/28 04:14:44;;;;;;;6.60;1.70;;;5.60;99.90;;;;;;5059526;28;20243;-70
2022/01/28 04:19:44;;;;;;;2.50;1.30;;;5.70;99.90;;;;;;5067128;28;20204;-70
2022/01/28 04:22:10;;;;;;;6.47;1.73;;;5.50;99.90;;;;;;5061481;28;20205;-70
2022/01/28 04:24:37;;;;;;;5.10;1.50;;;5.40;99.90;;;;;;5065277;28;20225;-70
2022/01/28 04:27:04;;;;;;;5.43;1.50;;;5.20;99.90;;;;;;5062866;28;20805;-70
2022/01/28 04:29:30;;;;;;;6.57;1.60;;;5.20;99.90;;;;;;5061673;28;20194;-70
2022/01/28 04:31:57;;;;;;;3.77;1.37;;;5.10;99.90;;;;;;5068891;28;21310;-70
2022/01/28 04:34:24;;;;;;;5.43;1.40;;;5.00;99.90;;;;;;5063079;28;20231;-70
2022/01/28 04:42:32;;;;;;;5.23;1.40;;;5.10;99.90;;;;;;5065814;28;20215;-70
2022/01/28 04:45:08;;;;;;;3.97;1.43;;;5.20;99.90;;;;;;5061801;28;20285;-70
2022/01/28 04:47:47;;;;;;;4.97;1.33;;;5.10;99.90;;;;;;5063237;28;20194;-70
2022/01/28 04:50:26;;;;;;;8.03;1.50;;;5.00;99.90;;;;;;5064270;28;20200;-70
2022/01/28 04:55:55;;;;;;;6.67;1.50;;;5.00;99.90;;;;;;5060254;28;20216;-70
2022/01/28 05:12:33;;;;;;;6.80;1.60;;;5.40;99.90;;;;;;5066399;28;20198;-68
2022/01/28 05:25:28;;;;;;;5.60;1.33;;;5.60;99.90;;;;;;5064306;28;20222;-68
2022/01/28 05:27:45;;;;;;;5.90;1.83;;;5.50;99.90;;;;;;5063654;28;20194;-68
2022/01/28 05:30:12;;;;;;;5.77;1.53;;;5.30;99.90;;;;;;5063810;28;20200;-68
2022/01/28 05:32:39;;;;;;;4.97;1.70;;;5.30;99.90;;;;;;5057576;28;20610;-69
2022/01/28 05:35:06;;;;;;;9.93;1.93;;;5.30;99.90;;;;;;5063468;28;20222;-69
2022/01/28 05:37:33;;;;;;;8.67;1.73;;;5.40;99.90;;;;;;5065120;28;20197;-68
2022/01/28 05:40:00;;;;;;;9.50;2.00;;;5.30;99.90;;;;;;5062192;28;20202;-69
2022/01/28 05:42:27;;;;;;;7.37;1.70;;;5.30;99.90;;;;;;5066078;28;20241;-67
2022/01/28 05:44:54;;;;;;;5.73;1.77;;;5.30;99.90;;;;;;5072747;28;20224;-67
2022/01/28 05:47:21;;;;;;;7.30;1.83;;;5.30;99.90;;;;;;5068484;28;20195;-68
2022/01/28 05:49:48;;;;;;;6.57;2.03;;;5.10;99.90;;;;;;5070721;28;20192;-68
2022/01/28 05:52:15;;;;;;;7.17;1.70;;;5.00;99.90;;;;;;5066609;28;20202;-68
2022/01/28 05:54:41;;;;;;;8.37;1.73;;;5.00;99.90;;;;;;5061838;28;20227;-68
2022/01/28 05:57:08;;;;;;;6.43;1.57;;;4.90;99.90;;;;;;5062071;28;20661;-71
2022/01/28 05:59:34;;;;;;;9.13;1.87;;;4.70;99.90;;;;;;5069380;28;20211;-70
2022/01/28 06:02:01;;;;;;;13.63;2.20;;;4.80;99.90;;;;;;5067426;28;20663;-71
2022/01/28 06:04:28;;;;;;;10.67;1.73;;;4.90;99.90;;;;;;5071052;28;20222;-70
2022/01/28 06:06:55;;;;;;;7.43;1.93;;;4.90;99.90;;;;;;5070156;28;20202;-70
2022/01/28 06:09:22;;;;;;;10.60;1.87;;;4.80;99.90;;;;;;5068534;28;20206;-70
2022/01/28 06:11:48;;;;;;;4.57;1.87;;;4.70;99.90;;;;;;5062149;28;20199;-70
2022/01/28 06:14:15;;;;;;;11.30;2.13;;;4.60;99.90;;;;;;5071703;28;20227;-70
2022/01/28 06:16:42;;;;;;;6.50;1.60;;;4.60;99.90;;;;;;5068996;28;20542;-70
2022/01/28 06:19:08;;;;;;;11.80;2.00;;;4.70;99.90;;;;;;5068757;28;20265;-70
2022/01/28 06:21:35;;;;;;;9.90;2.07;;;4.70;99.90;;;;;;5066585;28;20194;-71
2022/01/28 06:24:02;;;;;;;7.23;1.93;;;4.60;99.90;;;;;;5069560;28;20220;-70
2022/01/28 06:26:29;;;;;;;7.83;1.80;;;4.70;99.90;;;;;;5069596;28;20201;-70
2022/01/28 06:28:56;;;;;;;4.40;1.87;;;4.80;99.90;;;;;;5070789;28;20197;-70
2022/01/28 06:31:22;;;;;;;6.73;1.90;;;4.70;99.90;;;;;;5067430;28;20394;-72
2022/01/28 06:33:49;;;;;;;6.53;2.10;;;4.70;99.90;;;;;;5062577;28;20334;-71
2022/01/28 06:36:16;;;;;;;8.47;1.93;;;4.50;99.90;;;;;;5070287;28;20207;-71
2022/01/28 06:38:43;;;;;;;6.47;1.90;;;4.50;99.90;;;;;;5066613;28;20221;-71
2022/01/28 06:41:09;;;;;;;4.93;1.73;;;4.40;99.90;;;;;;5070863;28;20201;-71
2022/01/28 06:43:38;;;;;;;8.33;2.43;;;4.30;99.90;;;;;;5070050;28;20226;-71
2022/01/28 06:46:06;;;;;;;6.17;1.93;;;4.50;99.90;;;;;;5071620;28;20236;-71
2022/01/28 06:48:33;;;;;;;10.13;2.10;;;4.60;99.90;;;;;;5068327;28;20201;-71
2022/01/28 06:50:59;;;;;;;7.00;2.50;;;4.50;99.90;;;;;;5062216;28;20603;-71
2022/01/28 06:53:26;;;;;;;4.40;1.73;;;4.50;99.90;;;;;;5068607;28;20196;-71
2022/01/28 06:55:53;;;;;;;10.10;2.03;;;4.40;99.90;;;;;;5078494;28;20198;-70
2022/01/28 06:58:19;;;;;;;6.53;2.20;;;4.20;99.90;;;;;;5064876;28;20207;-71
2022/01/28 07:00:46;;;;;;;6.13;1.67;;;4.10;99.90;;;;;;5070168;28;20200;-71
2022/01/28 07:03:16;;;;;;;10.30;2.03;;;4.10;99.90;;;;;;5059004;28;20195;-72
2022/01/28 07:05:43;;;;;;;7.87;1.90;;;4.00;99.90;;;;;;5069676;28;20227;-69
2022/01/28 07:08:10;;;;;;;5.17;1.80;;;4.10;99.90;;;;;;5066608;28;20219;-70
2022/01/28 07:10:37;;;;;;;6.83;2.10;;;4.10;99.90;;;;;;5069646;28;20718;-69
2022/01/28 07:13:03;;;;;;;6.43;2.20;;;4.20;99.90;;;;;;5063587;28;20738;-68
2022/01/28 07:15:30;;;;;;;6.53;2.17;;;4.20;99.90;;;;;;5064631;28;20220;-70
2022/01/28 07:18:01;;;;;;;8.67;2.13;;;4.10;99.90;;;;;;5068551;28;20209;-70
2022/01/28 07:20:33;;;;;;;7.10;2.40;;;4.10;99.90;;;;;;5071257;28;20196;-70
2022/01/28 07:23:01;;;;;;;7.10;2.33;;;4.30;99.90;;;;;;5066039;28;20204;-70
2022/01/28 07:25:28;;;;;;;9.43;2.40;;;4.40;99.90;;;;;;5065281;28;20234;-71
2022/01/28 07:27:54;;;;;;;7.53;2.33;;;4.60;99.90;;;;;;5084023;28;20196;-70
2022/01/28 07:30:21;;;;;;;10.57;2.07;;;4.70;99.90;;;;;;5066288;28;20204;-70
2022/01/28 07:32:50;;;;;;;9.50;1.77;;;4.80;99.90;;;;;;5083785;28;20190;-69
2022/01/28 07:35:17;;;;;;;8.23;2.63;;;4.90;99.90;;;;;;5062758;28;20226;-69
2022/01/28 07:37:44;;;;;;;9.73;2.30;;;5.00;99.90;;;;;;5067545;28;20929;-70
2022/01/28 07:40:11;;;;;;;11.53;2.37;;;5.10;99.90;;;;;;5059608;28;20299;-70
2022/01/28 07:42:38;;;;;;;7.27;1.80;;;5.20;99.90;;;;;;5064208;28;20207;-70
2022/01/28 07:45:06;;;;;;;6.93;2.20;;;5.40;99.90;;;;;;5065265;28;20232;-70
2022/01/28 07:47:36;;;;;;;8.13;1.93;;;5.50;99.90;;;;;;5063931;28;20190;-69
2022/01/28 07:50:04;;;;;;;12.47;2.30;;;5.60;99.90;;;;;;5064169;28;20197;-69
2022/01/28 07:52:32;;;;;;;8.10;1.73;;;5.80;99.90;;;;;;5063106;28;20194;-69
2022/01/28 07:54:59;;;;;;;7.13;1.60;;;5.90;99.90;;;;;;5066751;28;20221;-69
2022/01/28 07:57:25;;;;;;;6.93;1.90;;;5.90;99.90;;;;;;5057305;28;20221;-70
2022/01/28 07:59:52;;;;;;;5.63;1.60;;;6.10;99.90;;;;;;5058982;28;20203;-69
2022/01/28 08:02:19;;;;;;;9.67;1.83;;;6.10;99.90;;;;;;5060323;28;20939;-70
2022/01/28 08:04:46;;;;;;;7.27;1.93;;;6.10;99.90;;;;;;5063373;28;20320;-69
2022/01/28 08:07:13;;;;;;;7.60;2.17;;;6.30;99.90;;;;;;5056510;28;20190;-69
2022/01/28 08:09:39;;;;;;;7.70;1.73;;;6.40;99.90;;;;;;5064759;28;20202;-70
2022/01/28 08:12:07;;;;;;;8.67;2.47;;;6.40;99.90;;;;;;5065805;28;20648;-69
2022/01/28 08:14:33;;;;;;;7.63;1.67;;;6.40;99.90;;;;;;5066539;28;20219;-70
2022/01/28 08:17:00;;;;;;;6.17;1.83;;;6.40;99.90;;;;;;5063393;28;20304;-70
2022/01/28 08:19:27;;;;;;;7.70;1.90;;;6.50;99.90;;;;;;5065723;28;20205;-70
2022/01/28 08:21:54;;;;;;;6.17;1.90;;;6.50;99.90;;;;;;5069454;28;20199;-70
2022/01/28 08:24:20;;;;;;;8.57;1.80;;;6.50;99.90;;;;;;5066968;28;20788;-69
2022/01/28 08:26:47;;;;;;;5.47;1.70;;;6.50;99.90;;;;;;5081473;28;20191;-70
2022/01/28 08:29:14;;;;;;;6.23;1.90;;;6.60;99.90;;;;;;5070348;28;20198;-70
2022/01/28 08:31:41;;;;;;;5.80;1.70;;;6.80;99.90;;;;;;5065120;28;20295;-70
2022/01/28 08:34:08;;;;;;;6.60;2.43;;;6.80;99.90;;;;;;5058327;28;20214;-70
2022/01/28 08:36:34;;;;;;;9.50;2.13;;;6.80;99.90;;;;;;5061429;28;20210;-70
2022/01/28 08:39:04;;;;;;;8.00;1.73;;;6.80;99.90;;;;;;5064515;28;20199;-70
2022/01/28 08:41:32;;;;;;;5.70;1.90;;;6.90;99.90;;;;;;5068300;28;20196;-70
2022/01/28 08:43:59;;;;;;;5.23;1.90;;;6.90;99.90;;;;;;5064010;28;20226;-70
2022/01/28 08:46:26;;;;;;;5.17;2.10;;;6.80;99.90;;;;;;5067119;28;20681;-70
2022/01/28 08:48:53;;;;;;;8.43;2.23;;;6.90;99.90;;;;;;5066775;28;20190;-71
2022/01/28 08:51:20;;;;;;;12.80;2.40;;;6.90;99.90;;;;;;5057659;28;20290;-70
2022/01/28 08:53:47;;;;;;;8.70;2.40;;;7.00;99.90;;;;;;5058690;28;20214;-70
2022/01/28 08:56:14;;;;;;;9.77;2.27;;;7.00;99.90;;;;;;5059199;28;20252;-70
2022/01/28 08:58:40;;;;;;;7.27;2.67;;;6.90;99.90;;;;;;5055012;28;20194;-70
2022/01/28 09:01:10;;;;;;;9.13;2.00;;;7.00;99.90;;;;;;5060988;28;20268;-70
2022/01/28 09:03:37;;;;;;;8.27;2.40;;;7.10;99.90;;;;;;5063484;28;20712;-70
2022/01/28 09:06:04;;;;;;;8.23;2.07;;;7.20;99.90;;;;;;5064134;28;20538;-70
2022/01/28 09:08:31;;;;;;;10.43;2.47;;;7.30;99.90;;;;;;5063233;28;20209;-70
2022/01/28 09:11:07;;;;;;;8.13;2.20;;;7.50;99.90;;;;;;5064620;28;20798;-70
2022/01/28 09:13:37;;;;;;;4.80;1.83;;;7.70;99.90;;;;;;5060394;28;20192;-70
2022/01/28 09:16:05;;;;;;;6.13;1.77;;;8.00;99.90;;;;;;5055442;28;20328;-69
2022/01/28 09:18:31;;;;;;;8.67;2.30;;;8.00;99.90;;;;;;5067423;28;20210;-69
2022/01/28 09:20:58;;;;;;;9.03;2.17;;;8.10;99.90;;;;;;5064857;28;20195;-70
2022/01/28 09:23:25;;;;;;;5.77;1.90;;;8.00;99.90;;;;;;5062792;28;20201;-70
2022/01/28 09:25:52;;;;;;;4.00;1.90;;;8.00;99.90;;;;;;5064826;28;20233;-71
2022/01/28 09:28:19;;;;;;;6.67;2.20;;;8.10;99.90;;;;;;5063248;28;21449;-70
2022/01/28 09:30:46;;;;;;;8.13;2.10;;;8.10;99.90;;;;;;5062228;28;20200;-69
2022/01/28 09:33:13;;;;;;;6.90;1.97;;;8.20;99.90;;;;;;5063015;28;20201;-69
2022/01/28 09:35:41;;;;;;;10.20;2.00;;;8.10;99.90;;;;;;5062652;28;20225;-69
2022/01/28 09:38:08;;;;;;;13.03;2.47;;;8.10;99.90;;;;;;5066564;28;20201;-69
2022/01/28 09:40:35;;;;;;;8.27;2.07;;;8.10;99.90;;;;;;5068718;28;20194;-69
2022/01/28 09:43:05;;;;;;;7.47;1.70;;;8.00;99.90;;;;;;5066640;28;20263;-69
2022/01/28 09:45:31;;;;;;;5.30;1.80;;;8.00;99.90;;;;;;5062703;28;20220;-69
2022/01/28 09:47:59;;;;;;;13.00;2.30;;;8.00;99.90;;;;;;5066598;28;20200;-69
2022/01/28 09:50:28;;;;;;;9.03;2.43;;;8.10;99.90;;;;;;5065310;28;20222;-69
2022/01/28 09:52:56;;;;;;;3.67;1.70;;;8.20;99.90;;;;;;5058298;28;20205;-70
2022/01/28 09:55:25;;;;;;;10.37;1.80;;;8.10;99.90;;;;;;5064768;28;20248;-69
2022/01/28 09:57:55;;;;;;;8.30;1.70;;;8.20;99.90;;;;;;5066335;28;20190;-69
2022/01/28 10:00:25;;;;;;;8.87;1.93;;;8.30;99.90;;;;;;5068404;28;20209;-70
2022/01/28 10:02:53;;;;;;;6.03;1.80;;;8.30;99.90;;;;;;5060788;28;20273;-69
2022/01/28 10:05:29;;;;;;;5.43;2.00;;;8.00;99.90;;;;;;5065363;28;20234;-69
2022/01/28 10:08:16;;;;;;;5.83;1.80;;;7.70;99.90;;;;;;5067336;28;20688;-69
2022/01/28 10:10:48;;;;;;;5.77;1.73;;;7.70;99.90;;;;;;5067553;28;20208;-69
2022/01/28 10:13:22;;;;;;;5.33;1.50;;;7.80;99.90;;;;;;5064801;28;20198;-69
2022/01/28 10:16:00;;;;;;;5.83;1.33;;;8.00;99.90;;;;;;5068104;28;20312;-69
2022/01/28 10:18:38;;;;;;;5.13;2.03;;;8.00;99.90;;;;;;5059876;28;20204;-69
2022/01/28 10:21:33;;;;;;;5.00;1.73;;;7.90;99.90;;;;;;5054740;28;20206;-69
2022/01/28 10:24:17;;;;;;;5.00;1.50;;;7.80;99.90;;;;;;5066753;28;20596;-69
2022/01/28 10:27:09;;;;;;;7.10;1.73;;;7.90;99.90;;;;;;5059276;28;20213;-70
2022/01/28 10:29:43;;;;;;;6.47;1.70;;;8.00;99.90;;;;;;5065349;28;20671;-70
2022/01/28 10:32:15;;;;;;;7.83;1.90;;;8.00;99.90;;;;;;5059720;28;20224;-70
2022/01/28 10:34:46;;;;;;;5.17;1.70;;;8.10;99.90;;;;;;5076878;28;20500;-70
2022/01/28 10:37:25;;;;;;;6.10;1.70;;;8.30;99.90;;;;;;5070428;28;20664;-70
2022/01/28 10:39:58;;;;;;;6.53;1.93;;;8.40;99.90;;;;;;5063166;28;20200;-70
2022/01/28 10:42:51;;;;;;;6.77;1.60;;;8.50;99.90;;;;;;5078487;28;20205;-69
2022/01/28 10:45:20;;;;;;;4.73;1.87;;;8.70;99.90;;;;;;5065908;28;20236;-69
2022/01/28 10:47:53;;;;;;;4.93;2.27;;;8.90;99.90;;;;;;5068282;28;20197;-69
2022/01/28 10:50:26;;;;;;;5.37;1.73;;;9.00;99.90;;;;;;5063216;28;20194;-69
2022/01/28 10:53:21;;;;;;;8.70;2.00;;;9.20;99.90;;;;;;5063435;28;20194;-69
2022/01/28 10:55:54;;;;;;;6.20;2.00;;;9.60;99.90;;;;;;5065355;28;20354;-69
2022/01/28 10:58:25;;;;;;;4.07;1.50;;;9.80;99.90;;;;;;5060509;28;20198;-69
2022/01/28 11:00:55;;;;;;;7.60;2.57;;;10.20;99.90;;;;;;5060016;28;20530;-69
2022/01/28 11:03:26;;;;;;;6.73;2.23;;;10.00;99.90;;;;;;5061311;28;20223;-69
2022/01/28 11:06:02;;;;;;;10.07;2.20;;;9.90;99.90;;;;;;5062660;28;20222;-69
2022/01/28 11:08:31;;;;;;;5.43;2.40;;;9.90;99.90;;;;;;5062214;28;20208;-70
2022/01/28 11:10:59;;;;;;;7.90;1.70;;;9.80;99.90;;;;;;5057164;28;20198;-69
2022/01/28 11:13:25;;;;;;;5.53;1.80;;;9.60;99.90;;;;;;5067063;28;20202;-69
2022/01/28 11:15:53;;;;;;;8.60;2.10;;;9.30;99.90;;;;;;5065280;28;20196;-69
2022/01/28 11:18:20;;;;;;;8.57;1.93;;;9.30;99.90;;;;;;5068967;28;20202;-69
2022/01/28 11:20:55;;;;;;;8.90;2.10;;;9.50;99.90;;;;;;5057651;28;20199;-69
2022/01/28 11:23:35;;;;;;;7.53;2.20;;;9.50;99.90;;;;;;5064935;28;20198;-70
2022/01/28 11:26:20;;;;;;;6.77;1.80;;;9.40;99.90;;;;;;5070072;28;20220;-70
2022/01/28 11:28:54;;;;;;;8.47;2.03;;;9.40;99.90;;;;;;5063158;28;20198;-70
2022/01/28 11:31:39;;;;;;;8.97;2.20;;;9.20;99.90;;;;;;5083884;28;20199;-70
2022/01/28 11:34:23;;;;;;;12.03;2.10;;;9.00;99.90;;;;;;5067795;28;20213;-70
2022/01/28 11:36:56;;;;;;;3.93;1.57;;;8.70;99.90;;;;;;5065647;28;20565;-70
2022/01/28 11:39:38;;;;;;;6.60;1.77;;;8.70;99.90;;;;;;5070433;28;20268;-70
2022/01/28 11:42:34;;;;;;;7.27;2.10;;;9.00;99.90;;;;;;5052871;28;20567;-70
2022/01/28 11:45:07;;;;;;;7.90;2.40;;;9.10;99.90;;;;;;5060768;28;20210;-70
2022/01/28 11:47:52;;;;;;;8.73;1.60;;;9.30;99.90;;;;;;5060963;28;20305;-70
2022/01/28 11:50:21;;;;;;;5.87;1.80;;;9.60;99.90;;;;;;5055096;28;20194;-70
2022/01/28 11:52:54;;;;;;;7.50;1.67;;;9.70;99.90;;;;;;5062492;28;20648;-69
2022/01/28 11:55:21;;;;;;;9.00;2.30;;;9.90;99.90;;;;;;5057438;28;20226;-70
2022/01/28 11:58:08;;;;;;;8.77;1.90;;;9.90;99.90;;;;;;5080471;28;20213;-70
2022/01/28 12:00:38;;;;;;;9.30;2.07;;;10.10;99.90;;;;;;5061655;28;20196;-69
2022/01/28 12:03:19;;;;;;;12.63;1.67;;;10.00;99.90;;;;;;5059634;28;20201;-70
2022/01/28 12:05:46;;;;;;;7.57;1.80;;;9.90;99.90;;;;;;5067449;28;20346;-70
2022/01/28 12:08:16;;;;;;;7.23;1.80;;;10.00;99.90;;;;;;5069435;28;20547;-69
2022/01/28 12:10:45;;;;;;;7.93;1.80;;;10.00;99.90;;;;;;5067078;28;20195;-69
2022/01/28 12:13:17;;;;;;;10.50;1.90;;;10.10;99.90;;;;;;5066478;28;20793;-70
2022/01/28 12:16:03;;;;;;;8.50;2.10;;;10.10;99.90;;;;;;5063571;28;20198;-70
2022/01/28 12:18:45;;;;;;;7.07;1.50;;;10.10;99.90;;;;;;5068898;28;20226;-69
2022/01/28 12:21:17;;;;;;;7.73;1.90;;;9.70;99.90;;;;;;5063979;28;20196;-69
2022/01/28 12:23:44;;;;;;;5.67;1.63;;;9.60;99.90;;;;;;5055624;28;20309;-69
2022/01/28 12:26:16;;;;;;;9.60;1.73;;;9.60;99.90;;;;;;5065459;28;20698;-70
2022/01/28 12:28:44;;;;;;;8.77;2.10;;;9.70;99.90;;;;;;5065081;28;20198;-69
2022/01/28 12:31:21;;;;;;;9.80;1.83;;;9.60;99.90;;;;;;5066511;28;20592;-69
2022/01/28 12:33:51;;;;;;;7.77;1.80;;;9.60;99.90;;;;;;5060564;28;20294;-69
2022/01/28 12:36:18;;;;;;;7.93;1.83;;;9.50;99.90;;;;;;5058024;28;20221;-69
2022/01/28 12:41:29;;;;;;;4.73;1.60;;;9.20;99.90;;;;;;5061809;28;20226;-69
2022/01/28 12:43:56;;;;;;;5.70;1.47;;;9.30;99.90;;;;;;5064101;28;20730;-69
2022/01/28 12:46:26;;;;;;;3.57;1.60;;;9.50;99.90;;;;;;5064452;28;20310;-69
2022/01/28 12:48:55;;;;;;;8.63;1.60;;;9.60;99.90;;;;;;5057224;28;20205;-68
2022/01/28 12:51:22;;;;;;;7.27;1.50;;;9.10;99.90;;;;;;5064962;28;20213;-69
2022/01/28 12:53:54;;;;;;;11.03;1.80;;;9.20;99.90;;;;;;5069245;28;20221;-69
2022/01/28 12:56:33;;;;;;;8.33;1.63;;;9.30;99.90;;;;;;5063093;28;20271;-69
2022/01/28 12:59:02;;;;;;;10.67;1.63;;;9.20;99.90;;;;;;5062553;28;20204;-68
2022/01/28 13:01:29;;;;;;;7.90;1.40;;;9.40;99.90;;;;;;5061812;28;20358;-69
2022/01/28 13:04:06;;;;;;;5.63;1.40;;;9.30;99.90;;;;;;5063846;28;20559;-68
2022/01/28 13:09:16;;;;;;;7.43;1.80;;;9.40;99.90;;;;;;5061997;28;20197;-71
2022/01/28 13:11:43;;;;;;;9.73;1.70;;;9.30;99.90;;;;;;5057901;28;20331;-70
2022/01/28 13:14:12;;;;;;;6.93;1.97;;;9.30;99.90;;;;;;5070098;28;20214;-68
2022/01/28 13:16:40;;;;;;;6.80;1.60;;;9.30;99.90;;;;;;5057383;28;20405;-68
2022/01/28 13:19:09;;;;;;;11.40;1.97;;;9.20;99.90;;;;;;5063501;28;20197;-68
2022/01/28 13:21:37;;;;;;;8.83;1.70;;;9.30;99.90;;;;;;5067204;28;20206;-68
2022/01/28 13:24:09;;;;;;;9.90;1.70;;;9.60;99.90;;;;;;5061625;28;20592;-69
2022/01/28 13:26:50;;;;;;;5.90;1.63;;;9.70;99.90;;;;;;5058651;28;20218;-69
2022/01/28 13:29:17;;;;;;;8.63;1.70;;;9.70;99.90;;;;;;5060214;28;20202;-69
2022/01/28 13:31:53;;;;;;;9.47;1.67;;;9.70;99.90;;;;;;5058538;28;20754;-69
2022/01/28 13:34:20;;;;;;;4.87;1.37;;;9.60;99.90;;;;;;5063020;28;20239;-69
2022/01/28 13:36:49;;;;;;;4.57;1.40;;;9.70;99.90;;;;;;5063320;28;20215;-69
2022/01/28 13:39:19;;;;;;;4.23;1.40;;;9.60;99.90;;;;;;5061508;28;20198;-69
2022/01/28 13:41:50;;;;;;;6.30;1.70;;;9.80;99.90;;;;;;5058331;28;20795;-69
2022/01/28 13:44:22;;;;;;;5.63;1.60;;;9.80;99.90;;;;;;5058340;28;20268;-68
2022/01/28 13:47:01;;;;;;;3.77;1.80;;;9.70;99.90;;;;;;5066382;28;20708;-68
2022/01/28 13:49:29;;;;;;;5.77;1.67;;;9.70;99.90;;;;;;5063477;28;20225;-69
2022/01/28 13:52:31;;;;;;;5.80;1.43;;;9.50;99.90;;;;;;5066428;28;20697;-69
2022/01/28 13:54:58;;;;;;;4.17;1.20;;;9.60;99.90;;;;;;5064300;28;20730;-69
2022/01/28 13:57:29;;;;;;;6.53;1.60;;;9.50;99.90;;;;;;5064211;28;20201;-69
2022/01/28 14:00:03;;;;;;;5.57;1.57;;;9.50;99.90;;;;;;5059933;28;20194;-69
2022/01/28 14:02:40;;;;;;;5.13;1.90;;;9.20;99.90;;;;;;5064066;28;20322;-69
2022/01/28 14:05:07;;;;;;;4.80;1.50;;;9.10;99.90;;;;;;5068759;28;20757;-69
2022/01/28 14:07:34;;;;;;;7.60;1.60;;;9.00;99.90;;;;;;5068141;28;20220;-68
2022/01/28 14:10:04;;;;;;;6.27;1.40;;;9.10;99.90;;;;;;5071265;28;20202;-69
2022/01/28 14:18:19;;;;;;;7.87;1.50;;;8.80;99.90;;;;;;5028123;28;20696;-68
2022/01/28 14:20:46;;;;;;;7.63;1.90;;;8.80;99.90;;;;;;5069525;28;20213;-68
2022/01/28 14:23:14;;;;;;;5.47;1.40;;;8.70;99.90;;;;;;5063186;28;20206;-68
2022/01/28 14:25:40;;;;;;;2.97;1.30;;;8.80;99.90;;;;;;5060740;28;20271;-69
2022/01/28 14:29:09;;;;;;;10.27;1.40;;;8.90;99.90;;;;;;5065343;28;20198;-68
2022/01/28 14:31:08;;;;;;;7.00;1.43;;;8.90;99.90;;;;;;5064445;28;20197;-68
2022/01/28 14:33:36;;;;;;;6.40;1.50;;;8.80;99.90;;;;;;5069684;28;20203;-68
2022/01/28 14:36:03;;;;;;;6.27;1.90;;;8.70;99.90;;;;;;5067955;28;20353;-68
2022/01/28 14:38:30;;;;;;;7.03;1.53;;;8.70;99.90;;;;;;5062389;28;20575;-68